Terminal Aerodrome Forecast
Issued by NWS

Home | Current Version | Previous Version | Text Only | Print | Product List | Glossary Off
Versions: 1 2 3 4 5 6 7 8 9 10 11 12

317
FTUS43 KICT 181720
TAFHUT
TAF
KHUT 181720Z 1818/1918 19017G23KT P6SM FEW050
     FM190100 15010KT P6SM SKC
     FM191600 19016G22KT P6SM SKC=

USA.gov is the U.S. government's official web portal to all federal, state and local government web resources and services.